»·PEaware :: N47DT KLAX-KSNA

N47DT :: KLAX-KSNA

FLIGHT INFORMATION

Flight Status: Arrived
Operator: Privately registered:
United States
More flights under this callsign
Pilot: Wayne C. (13792)
Aircraft: CESSNA T210 TURBO CENTURION
(T210)
More flights by this aircraft type
Origin: KLAX Los Angeles Intl
United States
Destination: KSNA John Wayne-Orange Co
United States
More flights between these airports :: More routes between these airports
Route: +SLI8 SLI
File this flight plan on PilotEdge
Remarks:
Altitude:
(Current/Filed)
4,000ft
Speed:
(Current/Filed)
130kts
Departed: 28-May-20 07:10 PM
Arrived: 28-May-20 07:45 PM
Distance/Time
Traveled:
31nm/0:35
Distance/Time
To Go:
Arrived

Flight Plot

Page will automatically refresh every two minutes.

Flight plan parsing failed; only flown route is shown


Map Options




Map Legend


Flown Route
Filed Route
Departure Airport
Arrival Airport
Navaid (VOR, NDB)
Fix

Horizontal Profiles

Position Reports

Time Latitude Longitude Heading Altitude Ground
Speed
28-May-20 18:54 33.933634 -118.399303 173 117ft 0kts
28-May-20 18:55 33.933633 -118.399303 173 117ft 0kts
28-May-20 18:56 33.933633 -118.399303 173 117ft 0kts
28-May-20 18:57 33.933633 -118.399303 173 117ft 0kts
28-May-20 18:58 33.933633 -118.399303 173 117ft 0kts
28-May-20 18:59 33.933633 -118.399303 173 117ft 0kts
28-May-20 19:00 33.933633 -118.399303 173 117ft 0kts
28-May-20 19:01 33.933633 -118.399303 173 117ft 0kts
28-May-20 19:02 33.933634 -118.399303 173 117ft 0kts
28-May-20 19:03 33.934672 -118.397260 83 111ft 33kts
28-May-20 19:04 33.935799 -118.385729 87 102ft 9kts
28-May-20 19:05 33.936135 -118.383088 56 100ft 0kts
28-May-20 19:06 33.936135 -118.383088 56 100ft 0kts
28-May-20 19:07 33.937225 -118.383201 289 100ft 20kts
28-May-20 19:08 33.937170 -118.384326 258 101ft 35kts
28-May-20 19:09 33.934575 -118.412696 262 991ft 101kts
28-May-20 19:10 33.923072 -118.446360 215 2237ft 97kts
28-May-20 19:11 33.888166 -118.473670 213 2753ft 140kts
28-May-20 19:12 33.847813 -118.505148 213 2750ft 154kts
28-May-20 19:13 33.811656 -118.533337 213 2749ft 153kts
28-May-20 19:14 33.776582 -118.512053 130 3379ft 157kts
28-May-20 19:15 33.748197 -118.472739 132 4043ft 158kts
28-May-20 19:16 33.719269 -118.433865 132 4049ft 155kts
28-May-20 19:17 33.704781 -118.388707 86 4050ft 154kts
28-May-20 19:18 33.707590 -118.337657 86 4050ft 154kts
28-May-20 19:19 33.710387 -118.287256 86 4049ft 154kts
28-May-20 19:20 33.728923 -118.243620 64 4049ft 154kts
28-May-20 19:21 33.743225 -118.198946 71 4050ft 154kts
28-May-20 19:22 33.756003 -118.153099 71 4049ft 154kts
28-May-20 19:23 33.767636 -118.111147 71 4050ft 154kts
28-May-20 19:24 33.780225 -118.065385 75 4048ft 154kts
28-May-20 19:25 33.780716 -118.020311 37 4049ft 153kts
28-May-20 19:26 33.809215 -117.986489 57 4049ft 154kts
28-May-20 19:27 33.827929 -117.943778 64 4084ft 152kts
28-May-20 19:28 33.844562 -117.902345 64 4544ft 163kts
28-May-20 19:29 33.862543 -117.857528 64 4549ft 153kts
28-May-20 19:30 33.880886 -117.811740 64 4549ft 149kts
28-May-20 19:31 33.899957 -117.764075 64 4549ft 148kts
28-May-20 19:32 33.919876 -117.715886 50 4546ft 148kts
28-May-20 19:33 33.954933 -117.690754 26 4550ft 148kts
28-May-20 19:34 33.974560 -117.713878 228 4546ft 147kts
28-May-20 19:35 33.936493 -117.709605 165 4516ft 140kts
28-May-20 19:36 33.897079 -117.727571 208 3552ft 169kts
28-May-20 19:37 33.859874 -117.751806 207 3447ft 137kts
28-May-20 19:39 33.827724 -117.772259 207 3340ft 133kts
28-May-20 19:40 33.793751 -117.793888 207 2845ft 148kts
28-May-20 19:41 33.758015 -117.818582 213 2535ft 120kts
28-May-20 19:42 33.731587 -117.833916 204 1747ft 111kts
28-May-20 19:43 33.707846 -117.848163 206 965ft 89kts
28-May-20 19:44 33.686496 -117.861940 208 258ft 80kts
28-May-20 19:45 33.675854 -117.869485 299 60ft 8kts
28-May-20 19:46 33.676063 -117.870052 292 60ft 7kts

Navigation Log

Ident Type
Flight plan parsing failed, navigation log unavailable